sensor_id;sensor_type;location;lat;lon;timestamp;P1;P2;P0
24012;PMS7003;12220;50.194;18.948;2022-10-16T00:00:50;26;26;19
24012;PMS7003;12220;50.194;18.948;2022-10-16T00:02:56;29;23;17
24012;PMS7003;12220;50.194;18.948;2022-10-16T00:05:00;23;22;15
24012;PMS7003;12220;50.194;18.948;2022-10-16T00:07:02;25;22;16
24012;PMS7003;12220;50.194;18.948;2022-10-16T00:09:03;23;20;15
24012;PMS7003;12220;50.194;18.948;2022-10-16T00:11:15;27;27;17
24012;PMS7003;12220;50.194;18.948;2022-10-16T00:13:32;24;23;15
24012;PMS7003;12220;50.194;18.948;2022-10-16T00:15:35;30;29;19
24012;PMS7003;12220;50.194;18.948;2022-10-16T00:17:39;25;24;19
24012;PMS7003;12220;50.194;18.948;2022-10-16T00:19:40;30;27;19
24012;PMS7003;12220;50.194;18.948;2022-10-16T00:21:47;30;27;18
24012;PMS7003;12220;50.194;18.948;2022-10-16T00:23:51;27;26;18
24012;PMS7003;12220;50.194;18.948;2022-10-16T00:25:55;23;21;16
24012;PMS7003;12220;50.194;18.948;2022-10-16T00:27:59;27;25;16
24012;PMS7003;12220;50.194;18.948;2022-10-16T00:30:02;26;24;17
24012;PMS7003;12220;50.194;18.948;2022-10-16T00:32:04;23;22;16
24012;PMS7003;12220;50.194;18.948;2022-10-16T00:34:05;23;23;16
24012;PMS7003;12220;50.194;18.948;2022-10-16T00:36:07;29;28;18
24012;PMS7003;12220;50.194;18.948;2022-10-16T00:38:17;21;18;15
24012;PMS7003;12220;50.194;18.948;2022-10-16T00:40:18;25;24;16
24012;PMS7003;12220;50.194;18.948;2022-10-16T00:42:19;19;16;13
24012;PMS7003;12220;50.194;18.948;2022-10-16T00:46:36;18;17;13
24012;PMS7003;12220;50.194;18.948;2022-10-16T00:48:40;24;20;15
24012;PMS7003;12220;50.194;18.948;2022-10-16T00:50:42;21;21;15
24012;PMS7003;12220;50.194;18.948;2022-10-16T00:52:46;20;20;16
24012;PMS7003;12220;50.194;18.948;2022-10-16T00:54:50;25;18;13
24012;PMS7003;12220;50.194;18.948;2022-10-16T00:56:54;22;22;14
24012;PMS7003;12220;50.194;18.948;2022-10-16T00:58:57;24;22;16
24012;PMS7003;12220;50.194;18.948;2022-10-16T01:01:00;23;20;15
24012;PMS7003;12220;50.194;18.948;2022-10-16T01:03:02;22;17;13
24012;PMS7003;12220;50.194;18.948;2022-10-16T01:05:09;14;12;9
24012;PMS7003;12220;50.194;18.948;2022-10-16T01:11:44;23;21;16
24012;PMS7003;12220;50.194;18.948;2022-10-16T01:13:53;19;15;12
24012;PMS7003;12220;50.194;18.948;2022-10-16T01:16:05;15;15;11
24012;PMS7003;12220;50.194;18.948;2022-10-16T01:25:30;16;16;15
24012;PMS7003;12220;50.194;18.948;2022-10-16T01:27:47;21;20;16
24012;PMS7003;12220;50.194;18.948;2022-10-16T01:29:53;20;19;12
24012;PMS7003;12220;50.194;18.948;2022-10-16T01:31:59;16;14;13
24012;PMS7003;12220;50.194;18.948;2022-10-16T01:34:06;15;15;13
24012;PMS7003;12220;50.194;18.948;2022-10-16T01:36:16;22;20;15
24012;PMS7003;12220;50.194;18.948;2022-10-16T01:40:46;22;21;14
24012;PMS7003;12220;50.194;18.948;2022-10-16T01:42:53;22;18;14
24012;PMS7003;12220;50.194;18.948;2022-10-16T01:45:00;22;19;16
24012;PMS7003;12220;50.194;18.948;2022-10-16T01:47:04;25;19;14
24012;PMS7003;12220;50.194;18.948;2022-10-16T01:49:08;20;17;15
24012;PMS7003;12220;50.194;18.948;2022-10-16T01:51:13;19;19;13
24012;PMS7003;12220;50.194;18.948;2022-10-16T01:53:17;23;21;17
24012;PMS7003;12220;50.194;18.948;2022-10-16T01:55:21;24;19;12
24012;PMS7003;12220;50.194;18.948;2022-10-16T01:57:28;19;18;12
24012;PMS7003;12220;50.194;18.948;2022-10-16T01:59:32;16;16;12
24012;PMS7003;12220;50.194;18.948;2022-10-16T02:01:36;15;15;10
24012;PMS7003;12220;50.194;18.948;2022-10-16T02:03:41;19;18;12
24012;PMS7003;12220;50.194;18.948;2022-10-16T02:08:05;18;18;13
24012;PMS7003;12220;50.194;18.948;2022-10-16T02:10:06;17;17;14
24012;PMS7003;12220;50.194;18.948;2022-10-16T02:12:19;29;23;14
24012;PMS7003;12220;50.194;18.948;2022-10-16T02:14:19;22;16;12
24012;PMS7003;12220;50.194;18.948;2022-10-16T02:18:41;19;13;10
24012;PMS7003;12220;50.194;18.948;2022-10-16T02:20:47;18;18;12
24012;PMS7003;12220;50.194;18.948;2022-10-16T02:22:55;21;18;13
24012;PMS7003;12220;50.194;18.948;2022-10-16T02:27:13;16;15;11
24012;PMS7003;12220;50.194;18.948;2022-10-16T02:29:24;18;17;13
24012;PMS7003;12220;50.194;18.948;2022-10-16T02:31:27;18;15;11
24012;PMS7003;12220;50.194;18.948;2022-10-16T02:33:35;16;12;9
24012;PMS7003;12220;50.194;18.948;2022-10-16T02:35:39;15;14;12
24012;PMS7003;12220;50.194;18.948;2022-10-16T02:37:42;19;19;12
24012;PMS7003;12220;50.194;18.948;2022-10-16T02:39:44;15;15;11
24012;PMS7003;12220;50.194;18.948;2022-10-16T02:41:46;14;13;9
24012;PMS7003;12220;50.194;18.948;2022-10-16T02:43:48;24;15;11
24012;PMS7003;12220;50.194;18.948;2022-10-16T02:45:54;14;14;10
24012;PMS7003;12220;50.194;18.948;2022-10-16T02:47:56;15;15;12
24012;PMS7003;12220;50.194;18.948;2022-10-16T02:49:57;11;11;9
24012;PMS7003;12220;50.194;18.948;2022-10-16T02:51:59;18;17;14
24012;PMS7003;12220;50.194;18.948;2022-10-16T02:54:09;18;16;13
24012;PMS7003;12220;50.194;18.948;2022-10-16T02:56:11;13;12;9
24012;PMS7003;12220;50.194;18.948;2022-10-16T02:58:12;16;13;11
24012;PMS7003;12220;50.194;18.948;2022-10-16T03:00:16;15;15;10
24012;PMS7003;12220;50.194;18.948;2022-10-16T03:02:24;13;13;11
24012;PMS7003;12220;50.194;18.948;2022-10-16T03:04:25;16;14;10
24012;PMS7003;12220;50.194;18.948;2022-10-16T03:06:27;13;12;9
24012;PMS7003;12220;50.194;18.948;2022-10-16T03:08:28;12;12;9
24012;PMS7003;12220;50.194;18.948;2022-10-16T03:10:39;11;11;9
24012;PMS7003;12220;50.194;18.948;2022-10-16T03:12:40;17;14;11
24012;PMS7003;12220;50.194;18.948;2022-10-16T03:14:42;13;12;10
24012;PMS7003;12220;50.194;18.948;2022-10-16T03:16:43;18;14;11
24012;PMS7003;12220;50.194;18.948;2022-10-16T03:18:54;17;13;10
24012;PMS7003;12220;50.194;18.948;2022-10-16T03:20:55;14;14;11
24012;PMS7003;12220;50.194;18.948;2022-10-16T03:22:58;12;12;10
24012;PMS7003;12220;50.194;18.948;2022-10-16T03:24:59;14;14;9
24012;PMS7003;12220;50.194;18.948;2022-10-16T03:27:09;17;13;10
24012;PMS7003;12220;50.194;18.948;2022-10-16T03:29:10;13;13;9
24012;PMS7003;12220;50.194;18.948;2022-10-16T03:31:11;18;16;9
24012;PMS7003;12220;50.194;18.948;2022-10-16T03:33:13;19;18;10
24012;PMS7003;12220;50.194;18.948;2022-10-16T03:35:24;16;16;11
24012;PMS7003;12220;50.194;18.948;2022-10-16T03:37:25;15;15;12
24012;PMS7003;12220;50.194;18.948;2022-10-16T03:39:26;20;17;13
24012;PMS7003;12220;50.194;18.948;2022-10-16T03:41:28;20;19;12
24012;PMS7003;12220;50.194;18.948;2022-10-16T03:43:39;16;16;12
24012;PMS7003;12220;50.194;18.948;2022-10-16T03:45:40;17;17;13
24012;PMS7003;12220;50.194;18.948;2022-10-16T03:47:41;18;12;11
24012;PMS7003;12220;50.194;18.948;2022-10-16T03:49:43;19;19;11
24012;PMS7003;12220;50.194;18.948;2022-10-16T03:51:54;20;18;13
24012;PMS7003;12220;50.194;18.948;2022-10-16T03:53:55;15;14;11
24012;PMS7003;12220;50.194;18.948;2022-10-16T03:55:56;15;12;10
24012;PMS7003;12220;50.194;18.948;2022-10-16T03:57:58;17;16;13
24012;PMS7003;12220;50.194;18.948;2022-10-16T04:00:09;14;14;11
24012;PMS7003;12220;50.194;18.948;2022-10-16T04:02:11;14;14;12
24012;PMS7003;12220;50.194;18.948;2022-10-16T04:04:13;13;12;9
24012;PMS7003;12220;50.194;18.948;2022-10-16T04:06:14;14;13;9
24012;PMS7003;12220;50.194;18.948;2022-10-16T04:08:24;15;13;10
24012;PMS7003;12220;50.194;18.948;2022-10-16T04:10:25;16;16;13
24012;PMS7003;12220;50.194;18.948;2022-10-16T04:12:26;19;16;14
24012;PMS7003;12220;50.194;18.948;2022-10-16T04:14:28;19;17;13
24012;PMS7003;12220;50.194;18.948;2022-10-16T04:16:39;17;15;10
24012;PMS7003;12220;50.194;18.948;2022-10-16T04:18:40;17;17;13
24012;PMS7003;12220;50.194;18.948;2022-10-16T04:20:41;21;18;10
24012;PMS7003;12220;50.194;18.948;2022-10-16T04:22:42;15;15;12
24012;PMS7003;12220;50.194;18.948;2022-10-16T04:24:54;16;14;10
24012;PMS7003;12220;50.194;18.948;2022-10-16T04:26:55;19;17;13
24012;PMS7003;12220;50.194;18.948;2022-10-16T04:28:56;17;16;12
24012;PMS7003;12220;50.194;18.948;2022-10-16T04:30:57;15;15;11
24012;PMS7003;12220;50.194;18.948;2022-10-16T04:33:09;17;16;11
24012;PMS7003;12220;50.194;18.948;2022-10-16T04:35:10;23;17;12
24012;PMS7003;12220;50.194;18.948;2022-10-16T04:37:11;21;18;12
24012;PMS7003;12220;50.194;18.948;2022-10-16T04:39:13;18;18;14
24012;PMS7003;12220;50.194;18.948;2022-10-16T04:43:11;14;12;9
24012;PMS7003;12220;50.194;18.948;2022-10-16T04:45:13;16;14;11
24012;PMS7003;12220;50.194;18.948;2022-10-16T04:47:14;13;13;11
24012;PMS7003;12220;50.194;18.948;2022-10-16T04:49:15;17;13;9
24012;PMS7003;12220;50.194;18.948;2022-10-16T04:51:16;13;8;6
24012;PMS7003;12220;50.194;18.948;2022-10-16T04:53:19;14;14;10
24012;PMS7003;12220;50.194;18.948;2022-10-16T04:55:21;12;11;8
24012;PMS7003;12220;50.194;18.948;2022-10-16T04:57:22;12;10;8
24012;PMS7003;12220;50.194;18.948;2022-10-16T04:59:23;11;11;9
24012;PMS7003;12220;50.194;18.948;2022-10-16T05:01:25;12;12;9
24012;PMS7003;12220;50.194;18.948;2022-10-16T05:03:36;13;13;9
24012;PMS7003;12220;50.194;18.948;2022-10-16T05:05:41;11;11;8
24012;PMS7003;12220;50.194;18.948;2022-10-16T05:07:47;12;11;9
24012;PMS7003;12220;50.194;18.948;2022-10-16T05:09:50;9;9;7
24012;PMS7003;12220;50.194;18.948;2022-10-16T05:11:54;15;13;10
24012;PMS7003;12220;50.194;18.948;2022-10-16T05:13:56;12;12;10
24012;PMS7003;12220;50.194;18.948;2022-10-16T05:15:57;11;11;9
24012;PMS7003;12220;50.194;18.948;2022-10-16T05:17:58;17;17;10
24012;PMS7003;12220;50.194;18.948;2022-10-16T05:20:06;12;10;9
24012;PMS7003;12220;50.194;18.948;2022-10-16T05:22:08;15;12;9
24012;PMS7003;12220;50.194;18.948;2022-10-16T05:24:09;18;16;11
24012;PMS7003;12220;50.194;18.948;2022-10-16T05:26:10;14;14;11
24012;PMS7003;12220;50.194;18.948;2022-10-16T05:28:21;13;12;10
24012;PMS7003;12220;50.194;18.948;2022-10-16T05:30:22;15;12;9
24012;PMS7003;12220;50.194;18.948;2022-10-16T05:32:23;13;13;10
24012;PMS7003;12220;50.194;18.948;2022-10-16T05:34:24;9;9;8
24012;PMS7003;12220;50.194;18.948;2022-10-16T05:36:36;15;13;9
24012;PMS7003;12220;50.194;18.948;2022-10-16T05:38:37;12;12;9
24012;PMS7003;12220;50.194;18.948;2022-10-16T05:40:38;13;12;10
24012;PMS7003;12220;50.194;18.948;2022-10-16T05:42:41;8;8;7
24012;PMS7003;12220;50.194;18.948;2022-10-16T05:44:50;14;13;10
24012;PMS7003;12220;50.194;18.948;2022-10-16T05:46:52;9;9;8
24012;PMS7003;12220;50.194;18.948;2022-10-16T05:48:53;14;13;9
24012;PMS7003;12220;50.194;18.948;2022-10-16T05:50:58;10;10;10
24012;PMS7003;12220;50.194;18.948;2022-10-16T05:53:06;11;11;9
24012;PMS7003;12220;50.194;18.948;2022-10-16T05:55:07;10;10;8
24012;PMS7003;12220;50.194;18.948;2022-10-16T05:57:08;15;15;11
24012;PMS7003;12220;50.194;18.948;2022-10-16T05:59:10;18;14;10
24012;PMS7003;12220;50.194;18.948;2022-10-16T06:01:20;14;13;10
24012;PMS7003;12220;50.194;18.948;2022-10-16T06:03:24;13;12;9
24012;PMS7003;12220;50.194;18.948;2022-10-16T06:05:26;14;14;9
24012;PMS7003;12220;50.194;18.948;2022-10-16T06:07:27;7;7;7
24012;PMS7003;12220;50.194;18.948;2022-10-16T06:09:35;12;12;10
24012;PMS7003;12220;50.194;18.948;2022-10-16T06:11:37;14;13;11
24012;PMS7003;12220;50.194;18.948;2022-10-16T06:13:38;15;12;9
24012;PMS7003;12220;50.194;18.948;2022-10-16T06:15:42;12;10;7
24012;PMS7003;12220;50.194;18.948;2022-10-16T06:17:50;13;9;6
24012;PMS7003;12220;50.194;18.948;2022-10-16T06:19:52;10;9;6
24012;PMS7003;12220;50.194;18.948;2022-10-16T06:21:53;17;13;9
24012;PMS7003;12220;50.194;18.948;2022-10-16T06:23:54;8;7;6
24012;PMS7003;12220;50.194;18.948;2022-10-16T06:26:06;12;11;8
24012;PMS7003;12220;50.194;18.948;2022-10-16T06:28:08;11;11;9
24012;PMS7003;12220;50.194;18.948;2022-10-16T06:30:10;11;11;8
24012;PMS7003;12220;50.194;18.948;2022-10-16T06:32:11;14;11;10
24012;PMS7003;12220;50.194;18.948;2022-10-16T06:34:20;11;11;8
24012;PMS7003;12220;50.194;18.948;2022-10-16T06:36:22;14;13;11
24012;PMS7003;12220;50.194;18.948;2022-10-16T06:38:23;14;11;9
24012;PMS7003;12220;50.194;18.948;2022-10-16T06:40:24;12;12;9
24012;PMS7003;12220;50.194;18.948;2022-10-16T06:42:35;10;10;9
24012;PMS7003;12220;50.194;18.948;2022-10-16T06:44:36;14;13;11
24012;PMS7003;12220;50.194;18.948;2022-10-16T06:46:37;18;15;12
24012;PMS7003;12220;50.194;18.948;2022-10-16T06:48:39;22;19;13
24012;PMS7003;12220;50.194;18.948;2022-10-16T06:53:12;33;27;20
24012;PMS7003;12220;50.194;18.948;2022-10-16T06:55:13;36;31;21
24012;PMS7003;12220;50.194;18.948;2022-10-16T06:57:15;36;30;22
24012;PMS7003;12220;50.194;18.948;2022-10-16T06:59:16;26;25;16
24012;PMS7003;12220;50.194;18.948;2022-10-16T07:01:18;25;21;16
24012;PMS7003;12220;50.194;18.948;2022-10-16T07:03:20;25;22;17
24012;PMS7003;12220;50.194;18.948;2022-10-16T07:05:22;18;18;16
24012;PMS7003;12220;50.194;18.948;2022-10-16T07:07:25;29;23;17
24012;PMS7003;12220;50.194;18.948;2022-10-16T07:09:27;23;20;17
24012;PMS7003;12220;50.194;18.948;2022-10-16T07:11:28;22;21;15
24012;PMS7003;12220;50.194;18.948;2022-10-16T07:13:30;20;19;14
24012;PMS7003;12220;50.194;18.948;2022-10-16T07:15:40;22;22;17
24012;PMS7003;12220;50.194;18.948;2022-10-16T07:17:42;21;18;14
24012;PMS7003;12220;50.194;18.948;2022-10-16T07:19:43;26;26;16
24012;PMS7003;12220;50.194;18.948;2022-10-16T07:21:45;32;27;17
24012;PMS7003;12220;50.194;18.948;2022-10-16T07:23:58;32;28;17
24012;PMS7003;12220;50.194;18.948;2022-10-16T07:26:01;23;20;17
24012;PMS7003;12220;50.194;18.948;2022-10-16T07:28:03;24;23;15
24012;PMS7003;12220;50.194;18.948;2022-10-16T07:30:05;28;25;17
24012;PMS7003;12220;50.194;18.948;2022-10-16T07:32:12;23;22;16
24012;PMS7003;12220;50.194;18.948;2022-10-16T07:34:14;24;23;16
24012;PMS7003;12220;50.194;18.948;2022-10-16T07:36:18;32;26;18
24012;PMS7003;12220;50.194;18.948;2022-10-16T07:38:22;21;21;14
24012;PMS7003;12220;50.194;18.948;2022-10-16T07:40:27;20;20;14
24012;PMS7003;12220;50.194;18.948;2022-10-16T07:42:28;26;23;17
24012;PMS7003;12220;50.194;18.948;2022-10-16T07:44:29;24;20;13
24012;PMS7003;12220;50.194;18.948;2022-10-16T07:46:30;20;20;14
24012;PMS7003;12220;50.194;18.948;2022-10-16T07:48:42;15;15;12
24012;PMS7003;12220;50.194;18.948;2022-10-16T07:50:47;14;14;12
24012;PMS7003;12220;50.194;18.948;2022-10-16T07:52:49;21;21;18
24012;PMS7003;12220;50.194;18.948;2022-10-16T07:54:50;21;21;17
24012;PMS7003;12220;50.194;18.948;2022-10-16T07:56:57;19;17;14
24012;PMS7003;12220;50.194;18.948;2022-10-16T07:58:58;21;21;14
24012;PMS7003;12220;50.194;18.948;2022-10-16T08:01:02;17;16;13
24012;PMS7003;12220;50.194;18.948;2022-10-16T08:03:05;19;18;14
24012;PMS7003;12220;50.194;18.948;2022-10-16T08:05:11;25;23;14
24012;PMS7003;12220;50.194;18.948;2022-10-16T08:07:13;24;23;19
24012;PMS7003;12220;50.194;18.948;2022-10-16T08:09:14;34;32;22
24012;PMS7003;12220;50.194;18.948;2022-10-16T08:11:15;39;35;23
24012;PMS7003;12220;50.194;18.948;2022-10-16T08:13:26;35;33;20
24012;PMS7003;12220;50.194;18.948;2022-10-16T08:15:28;25;25;19
24012;PMS7003;12220;50.194;18.948;2022-10-16T08:17:29;33;29;19
24012;PMS7003;12220;50.194;18.948;2022-10-16T08:19:30;22;21;18
24012;PMS7003;12220;50.194;18.948;2022-10-16T08:21:41;24;23;18
24012;PMS7003;12220;50.194;18.948;2022-10-16T08:23:42;19;19;16
24012;PMS7003;12220;50.194;18.948;2022-10-16T08:25:45;18;18;14
24012;PMS7003;12220;50.194;18.948;2022-10-16T08:27:46;19;18;13
24012;PMS7003;12220;50.194;18.948;2022-10-16T08:29:56;20;17;13
24012;PMS7003;12220;50.194;18.948;2022-10-16T08:31:57;22;22;17
24012;PMS7003;12220;50.194;18.948;2022-10-16T08:33:58;17;16;12
24012;PMS7003;12220;50.194;18.948;2022-10-16T08:36:01;22;20;16
24012;PMS7003;12220;50.194;18.948;2022-10-16T08:38:11;24;24;18
24012;PMS7003;12220;50.194;18.948;2022-10-16T08:42:29;18;17;13
24012;PMS7003;12220;50.194;18.948;2022-10-16T08:44:43;19;18;15
24012;PMS7003;12220;50.194;18.948;2022-10-16T08:46:56;17;16;13
24012;PMS7003;12220;50.194;18.948;2022-10-16T08:49:03;18;18;13
24012;PMS7003;12220;50.194;18.948;2022-10-16T08:51:18;20;19;15
24012;PMS7003;12220;50.194;18.948;2022-10-16T08:53:44;14;14;11
24012;PMS7003;12220;50.194;18.948;2022-10-16T08:55:52;15;15;12
24012;PMS7003;12220;50.194;18.948;2022-10-16T08:57:54;16;15;12
24012;PMS7003;12220;50.194;18.948;2022-10-16T08:59:57;21;21;17
24012;PMS7003;12220;50.194;18.948;2022-10-16T09:08:53;18;18;14
24012;PMS7003;12220;50.194;18.948;2022-10-16T09:11:20;20;16;12
24012;PMS7003;12220;50.194;18.948;2022-10-16T09:18:17;13;13;11
24012;PMS7003;12220;50.194;18.948;2022-10-16T09:25:20;17;17;12
24012;PMS7003;12220;50.194;18.948;2022-10-16T09:27:22;18;17;12
24012;PMS7003;12220;50.194;18.948;2022-10-16T09:29:30;20;20;15
24012;PMS7003;12220;50.194;18.948;2022-10-16T09:31:32;17;17;15
24012;PMS7003;12220;50.194;18.948;2022-10-16T09:33:37;19;18;14
24012;PMS7003;12220;50.194;18.948;2022-10-16T09:37:50;19;19;13
24012;PMS7003;12220;50.194;18.948;2022-10-16T09:39:54;17;17;13
24012;PMS7003;12220;50.194;18.948;2022-10-16T09:41:56;23;22;18
24012;PMS7003;12220;50.194;18.948;2022-10-16T09:43:58;16;15;13
24012;PMS7003;12220;50.194;18.948;2022-10-16T09:46:06;15;15;12
24012;PMS7003;12220;50.194;18.948;2022-10-16T09:48:12;17;16;12
24012;PMS7003;12220;50.194;18.948;2022-10-16T09:50:23;20;15;12
24012;PMS7003;12220;50.194;18.948;2022-10-16T09:52:31;25;20;14
24012;PMS7003;12220;50.194;18.948;2022-10-16T09:54:33;18;18;13
24012;PMS7003;12220;50.194;18.948;2022-10-16T09:56:35;16;16;13
24012;PMS7003;12220;50.194;18.948;2022-10-16T09:58:43;12;12;10
24012;PMS7003;12220;50.194;18.948;2022-10-16T10:00:50;14;14;11
24012;PMS7003;12220;50.194;18.948;2022-10-16T10:02:54;13;13;11
24012;PMS7003;12220;50.194;18.948;2022-10-16T10:04:55;15;15;11
24012;PMS7003;12220;50.194;18.948;2022-10-16T10:06:57;12;11;9
24012;PMS7003;12220;50.194;18.948;2022-10-16T10:13:43;15;14;12
24012;PMS7003;12220;50.194;18.948;2022-10-16T10:15:45;14;13;12
24012;PMS7003;12220;50.194;18.948;2022-10-16T10:17:48;16;16;13
24012;PMS7003;12220;50.194;18.948;2022-10-16T10:19:54;14;14;11
24012;PMS7003;12220;50.194;18.948;2022-10-16T10:21:58;13;13;11
24012;PMS7003;12220;50.194;18.948;2022-10-16T10:23:59;13;13;11
24012;PMS7003;12220;50.194;18.948;2022-10-16T10:26:06;14;13;10
24012;PMS7003;12220;50.194;18.948;2022-10-16T10:28:36;15;14;10
24012;PMS7003;12220;50.194;18.948;2022-10-16T10:32:49;12;12;9
24012;PMS7003;12220;50.194;18.948;2022-10-16T10:39:41;17;14;11
24012;PMS7003;12220;50.194;18.948;2022-10-16T10:50:57;17;15;12
24012;PMS7003;12220;50.194;18.948;2022-10-16T10:55:19;16;15;11
24012;PMS7003;12220;50.194;18.948;2022-10-16T11:07:02;19;19;13
24012;PMS7003;12220;50.194;18.948;2022-10-16T11:09:11;17;15;13
24012;PMS7003;12220;50.194;18.948;2022-10-16T11:13:31;8;8;7
24012;PMS7003;12220;50.194;18.948;2022-10-16T11:15:38;13;13;11
24012;PMS7003;12220;50.194;18.948;2022-10-16T11:22:21;17;12;10
24012;PMS7003;12220;50.194;18.948;2022-10-16T11:24:35;14;14;10
24012;PMS7003;12220;50.194;18.948;2022-10-16T11:26:43;15;14;11
24012;PMS7003;12220;50.194;18.948;2022-10-16T11:28:50;16;16;11
24012;PMS7003;12220;50.194;18.948;2022-10-16T11:35:39;13;12;10
24012;PMS7003;12220;50.194;18.948;2022-10-16T11:37:45;14;13;11
24012;PMS7003;12220;50.194;18.948;2022-10-16T11:39:53;13;13;10
24012;PMS7003;12220;50.194;18.948;2022-10-16T11:42:46;15;14;10
24012;PMS7003;12220;50.194;18.948;2022-10-16T11:46:32;17;16;10
24012;PMS7003;12220;50.194;18.948;2022-10-16T11:55:45;16;16;12
24012;PMS7003;12220;50.194;18.948;2022-10-16T11:57:48;21;19;14
24012;PMS7003;12220;50.194;18.948;2022-10-16T12:00:01;13;13;9
24012;PMS7003;12220;50.194;18.948;2022-10-16T12:02:18;19;18;14
24012;PMS7003;12220;50.194;18.948;2022-10-16T12:08:44;13;13;10
24012;PMS7003;12220;50.194;18.948;2022-10-16T12:10:50;19;18;13
24012;PMS7003;12220;50.194;18.948;2022-10-16T12:12:55;16;14;12
24012;PMS7003;12220;50.194;18.948;2022-10-16T12:15:02;12;12;9
24012;PMS7003;12220;50.194;18.948;2022-10-16T12:19:23;15;14;12
24012;PMS7003;12220;50.194;18.948;2022-10-16T12:21:29;16;16;12
24012;PMS7003;12220;50.194;18.948;2022-10-16T12:25:44;13;13;10
24012;PMS7003;12220;50.194;18.948;2022-10-16T12:27:59;20;19;13
24012;PMS7003;12220;50.194;18.948;2022-10-16T12:30:06;19;16;13
24012;PMS7003;12220;50.194;18.948;2022-10-16T12:34:44;12;12;10
24012;PMS7003;12220;50.194;18.948;2022-10-16T12:36:46;14;13;12
24012;PMS7003;12220;50.194;18.948;2022-10-16T12:38:54;15;15;13
24012;PMS7003;12220;50.194;18.948;2022-10-16T12:41:00;18;18;13
24012;PMS7003;12220;50.194;18.948;2022-10-16T12:49:52;17;15;11
24012;PMS7003;12220;50.194;18.948;2022-10-16T12:51:50;16;15;13
24012;PMS7003;12220;50.194;18.948;2022-10-16T12:58:51;20;19;14
24012;PMS7003;12220;50.194;18.948;2022-10-16T13:10:28;16;16;11
24012;PMS7003;12220;50.194;18.948;2022-10-16T13:12:46;16;14;11
24012;PMS7003;12220;50.194;18.948;2022-10-16T13:15:09;18;15;13
24012;PMS7003;12220;50.194;18.948;2022-10-16T13:24:29;15;15;12
24012;PMS7003;12220;50.194;18.948;2022-10-16T13:29:08;21;18;14
24012;PMS7003;12220;50.194;18.948;2022-10-16T13:31:19;22;21;14
24012;PMS7003;12220;50.194;18.948;2022-10-16T13:33:20;17;16;12
24012;PMS7003;12220;50.194;18.948;2022-10-16T13:35:28;15;15;13
24012;PMS7003;12220;50.194;18.948;2022-10-16T13:37:31;18;16;13
24012;PMS7003;12220;50.194;18.948;2022-10-16T13:39:32;24;22;14
24012;PMS7003;12220;50.194;18.948;2022-10-16T13:41:33;23;21;15
24012;PMS7003;12220;50.194;18.948;2022-10-16T13:43:38;17;17;15
24012;PMS7003;12220;50.194;18.948;2022-10-16T13:45:51;17;16;12
24012;PMS7003;12220;50.194;18.948;2022-10-16T13:48:04;20;19;15
24012;PMS7003;12220;50.194;18.948;2022-10-16T13:50:21;15;14;12
24012;PMS7003;12220;50.194;18.948;2022-10-16T13:52:22;22;20;16
24012;PMS7003;12220;50.194;18.948;2022-10-16T13:54:24;20;17;12
24012;PMS7003;12220;50.194;18.948;2022-10-16T13:56:30;18;15;13
24012;PMS7003;12220;50.194;18.948;2022-10-16T13:58:36;17;17;12
24012;PMS7003;12220;50.194;18.948;2022-10-16T14:00:38;17;16;12
24012;PMS7003;12220;50.194;18.948;2022-10-16T14:02:40;16;16;13
24012;PMS7003;12220;50.194;18.948;2022-10-16T14:04:41;19;19;12
24012;PMS7003;12220;50.194;18.948;2022-10-16T14:06:51;15;15;11
24012;PMS7003;12220;50.194;18.948;2022-10-16T14:08:58;18;15;10
24012;PMS7003;12220;50.194;18.948;2022-10-16T14:11:02;17;14;12
24012;PMS7003;12220;50.194;18.948;2022-10-16T14:13:04;11;11;9
24012;PMS7003;12220;50.194;18.948;2022-10-16T14:15:15;13;13;10
24012;PMS7003;12220;50.194;18.948;2022-10-16T14:17:29;11;11;10
24012;PMS7003;12220;50.194;18.948;2022-10-16T14:19:32;17;17;14
24012;PMS7003;12220;50.194;18.948;2022-10-16T14:21:34;10;8;7
24012;PMS7003;12220;50.194;18.948;2022-10-16T14:23:38;12;12;10
24012;PMS7003;12220;50.194;18.948;2022-10-16T14:25:43;15;15;11
24012;PMS7003;12220;50.194;18.948;2022-10-16T14:27:44;12;12;9
24012;PMS7003;12220;50.194;18.948;2022-10-16T14:30:03;12;11;10
24012;PMS7003;12220;50.194;18.948;2022-10-16T14:32:04;16;16;14
24012;PMS7003;12220;50.194;18.948;2022-10-16T14:36:22;15;13;10
24012;PMS7003;12220;50.194;18.948;2022-10-16T14:38:25;17;17;13
24012;PMS7003;12220;50.194;18.948;2022-10-16T14:40:28;17;15;12
24012;PMS7003;12220;50.194;18.948;2022-10-16T14:42:31;10;10;8
24012;PMS7003;12220;50.194;18.948;2022-10-16T14:44:34;11;11;6
24012;PMS7003;12220;50.194;18.948;2022-10-16T14:46:38;13;13;11
24012;PMS7003;12220;50.194;18.948;2022-10-16T14:48:43;10;10;6
24012;PMS7003;12220;50.194;18.948;2022-10-16T14:50:48;12;12;9
24012;PMS7003;12220;50.194;18.948;2022-10-16T14:52:50;9;9;7
24012;PMS7003;12220;50.194;18.948;2022-10-16T14:54:51;8;8;6
24012;PMS7003;12220;50.194;18.948;2022-10-16T14:56:57;14;10;9
24012;PMS7003;12220;50.194;18.948;2022-10-16T14:58:59;8;7;7
24012;PMS7003;12220;50.194;18.948;2022-10-16T15:01:04;8;8;8
24012;PMS7003;12220;50.194;18.948;2022-10-16T15:03:09;6;6;5
24012;PMS7003;12220;50.194;18.948;2022-10-16T15:05:15;8;7;6
24012;PMS7003;12220;50.194;18.948;2022-10-16T15:07:21;8;8;7
24012;PMS7003;12220;50.194;18.948;2022-10-16T15:09:22;9;9;7
24012;PMS7003;12220;50.194;18.948;2022-10-16T15:11:23;7;7;5
24012;PMS7003;12220;50.194;18.948;2022-10-16T15:13:24;8;8;6
24012;PMS7003;12220;50.194;18.948;2022-10-16T15:17:39;8;8;7
24012;PMS7003;12220;50.194;18.948;2022-10-16T15:19:40;9;9;8
24012;PMS7003;12220;50.194;18.948;2022-10-16T15:21:41;9;9;8
24012;PMS7003;12220;50.194;18.948;2022-10-16T15:23:44;9;7;7
24012;PMS7003;12220;50.194;18.948;2022-10-16T15:25:52;11;11;8
24012;PMS7003;12220;50.194;18.948;2022-10-16T15:27:55;10;10;8
24012;PMS7003;12220;50.194;18.948;2022-10-16T15:29:59;10;9;7
24012;PMS7003;12220;50.194;18.948;2022-10-16T15:32:00;9;9;7
24012;PMS7003;12220;50.194;18.948;2022-10-16T15:34:04;10;9;8
24012;PMS7003;12220;50.194;18.948;2022-10-16T15:36:06;10;10;8
24012;PMS7003;12220;50.194;18.948;2022-10-16T15:38:12;12;11;7
24012;PMS7003;12220;50.194;18.948;2022-10-16T15:40:14;9;9;8
24012;PMS7003;12220;50.194;18.948;2022-10-16T15:42:18;14;12;10